createdAt,value
2022-08-02T00:00:38.329Z,23.60
2022-08-02T00:03:05.166Z,23.60
2022-08-02T00:05:32.309Z,23.60
2022-08-02T00:07:59.255Z,23.60
2022-08-02T00:10:26.235Z,23.60
2022-08-02T00:12:53.893Z,23.50
2022-08-02T00:15:22.280Z,23.50
2022-08-02T00:17:49.418Z,23.50
2022-08-02T00:20:16.908Z,23.50
2022-08-02T00:22:44.125Z,23.50
2022-08-02T00:25:11.088Z,23.50
2022-08-02T00:27:38.032Z,23.40
2022-08-02T00:30:05.730Z,23.40
2022-08-02T00:32:32.803Z,23.40
2022-08-02T00:34:59.819Z,23.40
2022-08-02T00:37:26.686Z,23.40
2022-08-02T00:39:53.619Z,23.30
2022-08-02T00:42:20.553Z,23.30
2022-08-02T00:44:47.382Z,23.30
2022-08-02T00:47:19.434Z,23.30
2022-08-02T00:49:47.458Z,23.30
2022-08-02T00:52:14.905Z,23.30
2022-08-02T00:54:42.544Z,23.30
2022-08-02T00:57:09.916Z,23.30
2022-08-02T00:59:36.907Z,23.30
2022-08-02T01:02:04.139Z,23.30
2022-08-02T01:04:32.230Z,23.30
2022-08-02T01:07:03.985Z,23.30
2022-08-02T01:09:39.255Z,23.20
2022-08-02T01:12:06.887Z,23.20
2022-08-02T01:14:33.650Z,23.10
2022-08-02T01:17:16.524Z,23.20
2022-08-02T01:20:22.320Z,23.10
2022-08-02T01:23:13.693Z,23.10
2022-08-02T01:26:27.258Z,23.00
2022-08-02T01:29:18.905Z,23.00
2022-08-02T01:32:08.276Z,22.90
2022-08-02T01:34:59.812Z,22.90
2022-08-02T01:37:36.023Z,22.90
2022-08-02T01:40:12.583Z,22.90
2022-08-02T01:42:52.716Z,22.80
2022-08-02T01:45:21.958Z,22.80
2022-08-02T01:47:51.602Z,22.80
2022-08-02T01:50:27.423Z,22.80
2022-08-02T01:52:58.983Z,22.80
2022-08-02T01:55:33.469Z,22.80
2022-08-02T01:58:24.884Z,22.80
2022-08-02T02:00:56.436Z,22.80
2022-08-02T02:03:25.801Z,22.80
2022-08-02T02:05:57.515Z,22.70
2022-08-02T02:08:39.683Z,22.70
2022-08-02T02:12:10.164Z,22.70
2022-08-02T02:13:58.924Z,22.70
2022-08-02T02:16:28.069Z,22.70
2022-08-02T02:18:55.473Z,22.70
2022-08-02T02:21:22.702Z,22.70
2022-08-02T02:23:50.784Z,22.70
2022-08-02T02:26:29.370Z,22.70
2022-08-02T02:29:02.744Z,22.60
2022-08-02T02:31:37.789Z,22.60
2022-08-02T02:34:10.396Z,22.60
2022-08-02T02:36:41.391Z,22.60
2022-08-02T02:39:13.748Z,22.60
2022-08-02T02:41:43.485Z,22.60
2022-08-02T02:44:16.300Z,22.60
2022-08-02T02:46:45.034Z,22.50
2022-08-02T02:49:14.559Z,22.50
2022-08-02T02:51:44.256Z,22.50
2022-08-02T02:54:30.384Z,22.50
2022-08-02T02:57:02.077Z,22.50
2022-08-02T02:59:30.283Z,22.50
2022-08-02T03:01:58.771Z,22.50
2022-08-02T03:04:55.775Z,22.40
2022-08-02T03:07:16.960Z,22.40
2022-08-02T03:09:44.196Z,22.40
2022-08-02T03:12:13.287Z,22.40
2022-08-02T03:14:43.190Z,22.30
2022-08-02T03:17:10.240Z,22.40
2022-08-02T03:19:37.240Z,22.40
2022-08-02T03:22:04.545Z,22.30
2022-08-02T03:24:31.902Z,22.30
2022-08-02T03:26:58.757Z,22.30
2022-08-02T03:29:25.654Z,22.30
2022-08-02T03:31:53.233Z,22.30
2022-08-02T03:34:21.300Z,22.20
2022-08-02T03:36:54.796Z,22.20
2022-08-02T03:39:22.898Z,22.20
2022-08-02T03:41:50.903Z,22.20
2022-08-02T03:44:18.475Z,22.20
2022-08-02T03:46:46.134Z,22.20
2022-08-02T03:49:16.733Z,22.10
2022-08-02T03:51:45.447Z,22.10
2022-08-02T03:54:13.340Z,22.10
2022-08-02T03:56:40.527Z,22.10
2022-08-02T03:59:13.770Z,22.00
2022-08-02T04:01:41.217Z,22.10
2022-08-02T04:04:09.012Z,22.10
2022-08-02T04:06:39.953Z,22.10
2022-08-02T04:09:07.254Z,22.00
2022-08-02T04:11:34.150Z,22.00
2022-08-02T04:14:05.450Z,22.00
2022-08-02T04:16:45.885Z,22.00
2022-08-02T04:19:31.153Z,22.00
2022-08-02T04:22:05.885Z,22.00
2022-08-02T04:24:41.304Z,22.00
2022-08-02T04:27:33.485Z,22.00
2022-08-02T04:30:00.124Z,22.00
2022-08-02T04:32:28.222Z,22.00
2022-08-02T04:35:18.046Z,22.00
2022-08-02T04:38:05.750Z,22.00
2022-08-02T04:40:31.249Z,22.00
2022-08-02T04:42:58.109Z,22.00
2022-08-02T04:45:26.879Z,22.00
2022-08-02T04:48:03.350Z,22.00
2022-08-02T04:50:31.391Z,22.00
2022-08-02T04:52:58.809Z,21.90
2022-08-02T04:55:29.146Z,22.00
2022-08-02T04:57:58.357Z,22.00
2022-08-02T05:00:27.900Z,22.00
2022-08-02T05:02:57.530Z,22.10
2022-08-02T05:05:25.458Z,22.20
2022-08-02T05:07:52.675Z,22.20
2022-08-02T05:10:20.881Z,22.20
2022-08-02T05:12:49.030Z,22.20
2022-08-02T05:15:19.012Z,22.30
2022-08-02T05:17:48.708Z,22.30
2022-08-02T05:20:19.441Z,22.40
2022-08-02T05:22:47.080Z,22.40
2022-08-02T05:25:15.332Z,22.30
2022-08-02T05:27:43.563Z,22.40
2022-08-02T05:30:12.550Z,22.50
2022-08-02T05:32:53.009Z,22.50
2022-08-02T05:35:23.944Z,22.50
2022-08-02T05:37:53.821Z,22.60
2022-08-02T05:40:25.875Z,22.60
2022-08-02T05:42:54.825Z,22.70
2022-08-02T05:45:23.326Z,22.60
2022-08-02T05:47:51.847Z,22.70
2022-08-02T05:50:19.849Z,22.70
2022-08-02T05:53:01.283Z,22.70
2022-08-02T05:55:35.568Z,22.90
2022-08-02T05:58:47.081Z,22.80
2022-08-02T06:01:29.640Z,23.00
2022-08-02T06:04:01.311Z,23.00
2022-08-02T06:06:33.279Z,23.10
2022-08-02T06:09:04.508Z,23.10
2022-08-02T06:12:01.639Z,23.20
2022-08-02T06:14:41.890Z,23.20
2022-08-02T06:17:09.688Z,23.30
2022-08-02T06:19:51.724Z,23.40
2022-08-02T06:22:31.367Z,23.40
2022-08-02T06:25:05.474Z,23.50
2022-08-02T06:27:34.977Z,23.50
2022-08-02T06:30:06.198Z,23.60
2022-08-02T06:32:36.584Z,23.60
2022-08-02T06:35:06.202Z,23.70
2022-08-02T06:37:36.558Z,23.80
2022-08-02T06:40:17.381Z,23.80
2022-08-02T06:43:13.010Z,23.90
2022-08-02T06:45:40.817Z,23.90
2022-08-02T06:48:09.542Z,24.00
2022-08-02T06:50:38.805Z,24.10
2022-08-02T06:53:07.512Z,24.20
2022-08-02T06:55:43.592Z,24.30
2022-08-02T06:58:13.498Z,24.30
2022-08-02T07:00:42.888Z,24.40
2022-08-02T07:03:10.115Z,24.50
2022-08-02T07:05:37.853Z,24.60
2022-08-02T07:08:05.320Z,24.70
2022-08-02T07:10:32.626Z,24.80
2022-08-02T07:13:01.435Z,24.80
2022-08-02T07:15:29.626Z,25.00
2022-08-02T07:17:57.256Z,25.10
2022-08-02T07:20:24.514Z,25.10
2022-08-02T07:22:52.334Z,25.30
2022-08-02T07:25:20.509Z,25.40
2022-08-02T07:27:48.668Z,25.50
2022-08-02T07:30:16.447Z,25.60
2022-08-02T07:32:44.645Z,25.70
2022-08-02T07:35:14.477Z,25.70
2022-08-02T07:37:55.293Z,25.90
2022-08-02T07:40:26.980Z,25.90
2022-08-02T07:43:03.042Z,25.90
2022-08-02T07:45:35.844Z,26.00
2022-08-02T07:48:04.496Z,26.10
2022-08-02T07:50:32.443Z,26.20
2022-08-02T07:53:00.621Z,26.30
2022-08-02T07:55:39.711Z,26.40
2022-08-02T07:58:13.233Z,26.50
2022-08-02T08:00:45.137Z,26.50
2022-08-02T08:03:14.010Z,26.60
2022-08-02T08:05:42.148Z,26.80
2022-08-02T08:08:16.759Z,26.90
2022-08-02T08:10:45.427Z,27.00
2022-08-02T08:13:13.592Z,27.10
2022-08-02T08:15:41.560Z,27.30
2022-08-02T08:18:19.606Z,27.30
2022-08-02T08:20:47.652Z,27.50
2022-08-02T08:23:15.785Z,27.50
2022-08-02T08:25:44.041Z,27.60
2022-08-02T08:28:13.665Z,27.80
2022-08-02T08:30:42.718Z,27.80
2022-08-02T08:33:10.769Z,27.90
2022-08-02T08:35:39.025Z,28.00
2022-08-02T08:38:08.685Z,28.20
2022-08-02T08:40:37.604Z,28.30
2022-08-02T08:43:06.413Z,28.40
2022-08-02T08:45:34.400Z,28.50
2022-08-02T08:48:13.045Z,28.60
2022-08-02T08:51:07.907Z,28.80
2022-08-02T08:53:43.097Z,28.90
2022-08-02T08:56:16.308Z,29.00
2022-08-02T08:58:48.284Z,29.20
2022-08-02T09:01:16.990Z,29.30
2022-08-02T09:03:46.134Z,29.50
2022-08-02T09:06:13.212Z,29.60
2022-08-02T09:08:40.345Z,29.70
2022-08-02T09:11:16.722Z,29.80
2022-08-02T09:14:10.273Z,29.90
2022-08-02T09:16:42.649Z,30.10
2022-08-02T09:19:24.512Z,30.20
2022-08-02T09:22:13.678Z,30.30
2022-08-02T09:24:44.762Z,30.40
2022-08-02T09:27:21.980Z,30.50
2022-08-02T09:30:12.827Z,30.60
2022-08-02T09:32:48.379Z,30.70
2022-08-02T09:36:05.908Z,30.70
2022-08-02T09:38:19.855Z,30.80
2022-08-02T09:40:46.833Z,30.90
2022-08-02T09:43:13.774Z,30.90
2022-08-02T09:45:40.755Z,31.00
2022-08-02T09:48:09.255Z,31.10
2022-08-02T09:50:42.658Z,31.10
2022-08-02T09:53:14.021Z,31.20
2022-08-02T09:55:42.491Z,31.20
2022-08-02T09:58:27.928Z,31.20
2022-08-02T10:00:58.905Z,31.30
2022-08-02T10:03:29.056Z,31.40
2022-08-02T10:06:04.205Z,31.50
2022-08-02T10:08:33.511Z,31.50
2022-08-02T10:11:02.143Z,31.60
2022-08-02T10:13:34.761Z,31.70
2022-08-02T10:16:03.628Z,31.80
2022-08-02T10:18:40.303Z,31.90
2022-08-02T10:21:22.508Z,32.00
2022-08-02T10:23:52.164Z,32.10
2022-08-02T10:26:20.958Z,32.10
2022-08-02T10:28:49.914Z,32.20
2022-08-02T10:31:26.881Z,32.20
2022-08-02T10:33:57.962Z,32.20
2022-08-02T10:36:27.541Z,32.30
2022-08-02T10:38:58.536Z,32.30
2022-08-02T10:41:52.317Z,32.40
2022-08-02T10:44:32.401Z,32.60
2022-08-02T10:47:15.014Z,32.70
2022-08-02T10:50:01.061Z,32.80
2022-08-02T10:52:31.931Z,32.90
2022-08-02T10:55:13.403Z,32.90
2022-08-02T10:57:41.947Z,33.10
2022-08-02T11:00:24.688Z,33.20
2022-08-02T11:02:53.807Z,33.20
2022-08-02T11:05:42.549Z,33.30
2022-08-02T11:08:23.146Z,33.40
2022-08-02T11:10:50.160Z,33.40
2022-08-02T11:13:19.540Z,33.40
2022-08-02T11:16:10.660Z,33.60
2022-08-02T11:18:44.184Z,33.70
2022-08-02T11:21:28.987Z,33.80
2022-08-02T11:23:57.081Z,33.90
2022-08-02T11:26:32.366Z,34.00
2022-08-02T11:29:05.463Z,34.10
2022-08-02T11:31:45.077Z,34.10
2022-08-02T11:34:36.756Z,34.10
2022-08-02T11:37:00.495Z,34.20
2022-08-02T11:39:27.501Z,34.30
2022-08-02T11:41:59.160Z,34.30
2022-08-02T11:44:28.382Z,34.40
2022-08-02T11:47:03.471Z,34.50
2022-08-02T11:49:30.977Z,34.70
2022-08-02T11:52:08.112Z,34.80
2022-08-02T11:54:42.280Z,34.90
2022-08-02T11:57:21.442Z,35.00
2022-08-02T11:59:52.167Z,35.00
2022-08-02T12:02:22.193Z,35.10
2022-08-02T12:05:03.381Z,35.20
2022-08-02T12:07:46.253Z,35.30
2022-08-02T12:10:19.083Z,35.40
2022-08-02T12:12:54.225Z,35.50
2022-08-02T12:15:37.283Z,35.60
2022-08-02T12:18:36.199Z,35.80
2022-08-02T12:21:20.388Z,35.80
2022-08-02T12:23:58.857Z,35.90
2022-08-02T12:26:29.455Z,36.00
2022-08-02T12:28:58.906Z,36.10
2022-08-02T12:31:56.812Z,36.20
2022-08-02T12:34:31.905Z,36.30
2022-08-02T12:37:05.421Z,36.40
2022-08-02T12:39:45.754Z,36.50
2022-08-02T12:42:15.474Z,36.50
2022-08-02T12:44:58.859Z,36.60
2022-08-02T12:47:31.230Z,36.60
2022-08-02T12:50:21.252Z,36.70
2022-08-02T12:53:03.779Z,36.80
2022-08-02T12:56:01.334Z,36.80
2022-08-02T12:58:18.791Z,36.90
2022-08-02T13:00:55.624Z,36.90
2022-08-02T13:04:10.850Z,37.00
2022-08-02T13:06:41.037Z,37.00
2022-08-02T13:09:01.370Z,37.10
2022-08-02T13:11:29.167Z,37.10
2022-08-02T13:13:56.356Z,37.10
2022-08-02T13:16:30.486Z,37.10
2022-08-02T13:18:59.323Z,37.10
2022-08-02T13:21:41.449Z,37.10
2022-08-02T13:24:33.318Z,37.20
2022-08-02T13:27:04.503Z,37.20
2022-08-02T13:29:35.130Z,37.20
2022-08-02T13:32:01.975Z,37.30
2022-08-02T13:34:28.804Z,37.20
2022-08-02T13:36:55.638Z,37.30
2022-08-02T13:39:22.451Z,37.30
2022-08-02T13:41:49.809Z,37.40
2022-08-02T13:44:16.755Z,37.40
2022-08-02T13:46:45.661Z,37.50
2022-08-02T13:49:18.923Z,37.60
2022-08-02T13:51:48.330Z,37.60
2022-08-02T13:54:18.424Z,37.60
2022-08-02T13:56:45.428Z,37.70
2022-08-02T13:59:55.130Z,37.70
2022-08-02T14:01:59.622Z,37.70
2022-08-02T14:04:27.686Z,37.80
2022-08-02T14:06:54.848Z,37.80
2022-08-02T14:09:26.689Z,37.90
2022-08-02T14:11:53.939Z,37.90
2022-08-02T14:14:20.886Z,38.00
2022-08-02T14:16:47.983Z,38.00
2022-08-02T14:19:16.658Z,38.00
2022-08-02T14:21:46.933Z,38.00
2022-08-02T14:24:18.554Z,38.00
2022-08-02T14:26:46.951Z,38.00
2022-08-02T14:29:14.869Z,38.10
2022-08-02T14:31:44.811Z,38.10
2022-08-02T14:34:13.540Z,38.20
2022-08-02T14:36:40.714Z,38.30
2022-08-02T14:39:07.937Z,38.30
2022-08-02T14:41:58.196Z,38.40
2022-08-02T14:44:23.996Z,38.50
2022-08-02T14:46:51.586Z,38.50
2022-08-02T14:49:25.087Z,38.60
2022-08-02T14:51:54.856Z,38.60
2022-08-02T14:54:28.165Z,38.70
2022-08-02T14:57:02.750Z,38.70
2022-08-02T14:59:31.031Z,38.80
2022-08-02T15:01:59.479Z,38.80
2022-08-02T15:04:26.792Z,38.90
2022-08-02T15:06:54.900Z,38.90
2022-08-02T15:09:21.930Z,38.90
2022-08-02T15:11:49.673Z,38.90
2022-08-02T15:14:25.648Z,39.00
2022-08-02T15:16:57.492Z,39.00
2022-08-02T15:19:40.868Z,39.00
2022-08-02T15:22:16.141Z,39.00
2022-08-02T15:24:45.108Z,39.10
2022-08-02T15:27:14.162Z,39.10
2022-08-02T15:29:43.379Z,39.20
2022-08-02T15:32:12.029Z,39.20
2022-08-02T15:34:40.119Z,39.20
2022-08-02T15:37:07.047Z,39.20
2022-08-02T15:39:33.959Z,39.20
2022-08-02T15:42:00.921Z,39.20
2022-08-02T15:44:27.875Z,39.20
2022-08-02T15:46:54.803Z,39.20
2022-08-02T15:49:24.849Z,39.20
2022-08-02T15:51:53.455Z,39.20
2022-08-02T15:54:20.894Z,39.20
2022-08-02T15:56:48.461Z,39.20
2022-08-02T15:59:15.646Z,39.20
2022-08-02T16:01:47.215Z,39.20
2022-08-02T16:04:16.356Z,39.20
2022-08-02T16:06:44.321Z,39.10
2022-08-02T16:09:11.205Z,39.10
2022-08-02T16:11:38.834Z,39.00
2022-08-02T16:14:05.978Z,39.00
2022-08-02T16:16:36.190Z,39.00
2022-08-02T16:19:47.879Z,39.00
2022-08-02T16:21:53.810Z,38.90
2022-08-02T16:24:21.482Z,38.80
2022-08-02T16:26:48.568Z,38.80
2022-08-02T16:29:19.341Z,38.80
2022-08-02T16:31:49.657Z,38.70
2022-08-02T16:34:17.543Z,38.70
2022-08-02T16:36:45.580Z,38.70
2022-08-02T16:39:13.060Z,38.60
2022-08-02T16:41:50.651Z,38.60
2022-08-02T16:44:29.455Z,38.50
2022-08-02T16:47:01.138Z,38.50
2022-08-02T16:50:06.944Z,38.50
2022-08-02T16:52:16.781Z,38.40
2022-08-02T16:54:47.022Z,38.30
2022-08-02T16:57:17.273Z,38.20
2022-08-02T16:59:57.998Z,38.10
2022-08-02T17:02:26.563Z,38.00
2022-08-02T17:04:55.157Z,37.90
2022-08-02T17:08:15.140Z,37.80
2022-08-02T17:10:09.774Z,37.70
2022-08-02T17:12:38.180Z,37.60
2022-08-02T17:16:01.257Z,37.50
2022-08-02T17:17:54.510Z,37.30
2022-08-02T17:20:21.939Z,37.20
2022-08-02T17:22:51.761Z,37.10
2022-08-02T17:25:19.580Z,37.00
2022-08-02T17:27:55.527Z,36.90
2022-08-02T17:30:26.856Z,36.80
2022-08-02T17:32:54.250Z,36.60
2022-08-02T17:35:27.116Z,36.50
2022-08-02T17:38:10.488Z,36.40
2022-08-02T17:40:37.396Z,36.20
2022-08-02T17:43:14.510Z,36.10
2022-08-02T17:46:00.787Z,35.90
2022-08-02T17:48:55.038Z,35.80
2022-08-02T17:52:14.881Z,35.60
2022-08-02T17:54:10.683Z,35.50
2022-08-02T17:56:38.271Z,35.40
2022-08-02T17:59:20.469Z,35.30
2022-08-02T18:01:54.725Z,35.10
2022-08-02T18:04:26.839Z,35.00
2022-08-02T18:06:59.469Z,34.90
2022-08-02T18:09:32.549Z,34.80
2022-08-02T18:12:01.711Z,34.70
2022-08-02T18:14:28.730Z,34.40
2022-08-02T18:16:55.738Z,34.30
2022-08-02T18:19:22.731Z,34.30
2022-08-02T18:21:49.872Z,34.20
2022-08-02T18:24:16.856Z,33.90
2022-08-02T18:26:44.218Z,33.90
2022-08-02T18:29:12.170Z,33.80
2022-08-02T18:31:42.852Z,33.70
2022-08-02T18:37:06.860Z,33.50
2022-08-02T18:39:38.459Z,33.40
2022-08-02T18:42:05.860Z,33.20
2022-08-02T18:44:32.798Z,33.00
2022-08-02T18:47:00.771Z,33.00
2022-08-02T18:49:46.349Z,32.90
2022-08-02T18:52:15.623Z,32.80
2022-08-02T18:54:54.985Z,32.60
2022-08-02T18:58:19.691Z,32.60
2022-08-02T19:00:13.478Z,32.40
2022-08-02T19:02:40.812Z,32.30
2022-08-02T19:05:08.317Z,32.10
2022-08-02T19:07:51.192Z,32.00
2022-08-02T19:10:20.603Z,31.90
2022-08-02T19:12:51.759Z,31.80
2022-08-02T19:15:19.982Z,31.70
2022-08-02T19:17:55.701Z,31.60
2022-08-02T19:20:25.898Z,31.50
2022-08-02T19:22:56.361Z,31.40
2022-08-02T19:25:27.912Z,31.30
2022-08-02T19:27:56.925Z,31.20
2022-08-02T19:30:25.961Z,31.10
2022-08-02T19:33:00.292Z,31.00
2022-08-02T19:35:36.021Z,30.90
2022-08-02T19:38:23.128Z,30.80
2022-08-02T19:40:54.494Z,30.70
2022-08-02T19:44:25.149Z,30.60
2022-08-02T19:46:15.597Z,30.60
2022-08-02T19:48:44.121Z,30.50
2022-08-02T19:51:13.428Z,30.30
2022-08-02T19:53:47.179Z,30.30
2022-08-02T19:56:20.340Z,30.20
2022-08-02T19:58:51.223Z,30.10
2022-08-02T20:01:23.564Z,30.00
2022-08-02T20:03:54.604Z,30.00
2022-08-02T20:06:29.622Z,29.90
2022-08-02T20:09:01.293Z,29.90
2022-08-02T20:11:35.131Z,29.90
2022-08-02T20:14:05.022Z,29.80
2022-08-02T20:16:34.463Z,29.80
2022-08-02T20:19:03.908Z,29.70
2022-08-02T20:24:18.662Z,29.60
2022-08-02T20:26:47.861Z,29.60
2022-08-02T20:29:42.360Z,29.60
2022-08-02T20:32:05.091Z,29.50
2022-08-02T20:34:32.116Z,29.40
2022-08-02T20:37:02.997Z,29.40
2022-08-02T20:39:48.124Z,29.30
2022-08-02T20:42:23.510Z,29.20
2022-08-02T20:44:55.624Z,29.10
2022-08-02T20:47:27.702Z,29.00
2022-08-02T20:50:30.684Z,28.90
2022-08-02T20:53:00.437Z,28.80
2022-08-02T20:55:31.187Z,28.80
2022-08-02T20:58:02.691Z,28.70
2022-08-02T21:00:31.758Z,28.60
2022-08-02T21:03:00.210Z,28.50
2022-08-02T21:05:55.183Z,28.40
2022-08-02T21:08:15.818Z,28.40
2022-08-02T21:10:50.556Z,28.30
2022-08-02T21:13:23.196Z,28.20
2022-08-02T21:15:51.941Z,28.20
2022-08-02T21:18:23.873Z,28.10
2022-08-02T21:20:56.713Z,28.00
2022-08-02T21:23:24.155Z,28.00
2022-08-02T21:25:57.293Z,27.80
2022-08-02T21:28:43.839Z,27.80
2022-08-02T21:31:15.353Z,27.80
2022-08-02T21:33:47.100Z,27.70
2022-08-02T21:36:31.419Z,27.70
2022-08-02T21:39:05.637Z,27.60
2022-08-02T21:41:39.887Z,27.60
2022-08-02T21:44:22.003Z,27.50
2022-08-02T21:46:52.585Z,27.50
2022-08-02T21:49:40.592Z,27.40
2022-08-02T21:52:08.705Z,27.40
2022-08-02T21:54:35.708Z,27.30
2022-08-02T21:57:07.513Z,27.20
2022-08-02T21:59:45.316Z,27.20
2022-08-02T22:02:13.613Z,27.20
2022-08-02T22:04:41.537Z,27.10
2022-08-02T22:07:23.601Z,27.10
2022-08-02T22:09:52.270Z,27.10
2022-08-02T22:12:20.057Z,27.00
2022-08-02T22:14:54.600Z,27.00
2022-08-02T22:17:52.142Z,26.90
2022-08-02T22:20:21.279Z,26.90
2022-08-02T22:22:52.058Z,26.90
2022-08-02T22:25:26.345Z,26.90
2022-08-02T22:28:36.455Z,26.80
2022-08-02T22:30:45.991Z,26.80
2022-08-02T22:33:38.485Z,26.80
2022-08-02T22:36:11.376Z,26.70
2022-08-02T22:38:38.771Z,26.70
2022-08-02T22:41:15.997Z,26.70
2022-08-02T22:43:43.522Z,26.60
2022-08-02T22:46:15.541Z,26.50
2022-08-02T22:48:45.506Z,26.50
2022-08-02T22:51:14.785Z,26.50
2022-08-02T22:53:44.070Z,26.50
2022-08-02T22:56:16.115Z,26.50
2022-08-02T22:58:44.949Z,33.60
2022-08-02T22:59:05.447Z,29.70
2022-08-02T23:01:30.370Z,26.40
2022-08-02T23:03:57.318Z,26.40
2022-08-02T23:06:24.289Z,26.40
2022-08-02T23:08:51.236Z,26.30
2022-08-02T23:11:18.120Z,26.30
2022-08-02T23:13:45.010Z,26.30
2022-08-02T23:16:30.350Z,26.20
2022-08-02T23:19:15.868Z,26.20
2022-08-02T23:22:01.063Z,26.10
2022-08-02T23:24:30.384Z,26.10
2022-08-02T23:26:57.221Z,26.00
2022-08-02T23:29:24.171Z,26.00
2022-08-02T23:31:51.063Z,26.00
2022-08-02T23:34:19.809Z,25.90
2022-08-02T23:36:46.676Z,25.90
2022-08-02T23:39:13.660Z,25.80
2022-08-02T23:41:40.915Z,25.80
2022-08-02T23:44:15.410Z,25.80
2022-08-02T23:46:45.456Z,25.70
2022-08-02T23:49:13.822Z,25.70
2022-08-02T23:51:40.781Z,25.70
2022-08-02T23:54:07.889Z,25.60
2022-08-02T23:56:34.962Z,25.60
2022-08-02T23:59:01.989Z,25.60
